sensor_id;sensor_type;location;lat;lon;timestamp;pressure;altitude;pressure_sealevel;temperature;humidity
9139;BME280;4604;48.616;9.548;2023-03-24T00:00:06;96109.63;;;15.89;55.39
9139;BME280;4604;48.616;9.548;2023-03-24T00:02:35;96100.16;;;15.80;57.01
9139;BME280;4604;48.616;9.548;2023-03-24T00:05:06;96099.78;;;15.83;57.37
9139;BME280;4604;48.616;9.548;2023-03-24T00:07:36;96094.41;;;15.76;56.99
9139;BME280;4604;48.616;9.548;2023-03-24T00:10:04;96102.00;;;15.79;56.17
9139;BME280;4604;48.616;9.548;2023-03-24T00:12:34;96099.91;;;15.75;55.72
9139;BME280;4604;48.616;9.548;2023-03-24T00:15:04;96097.47;;;15.80;55.03
9139;BME280;4604;48.616;9.548;2023-03-24T00:17:32;96097.31;;;15.81;55.05
9139;BME280;4604;48.616;9.548;2023-03-24T00:20:02;96078.91;;;15.65;56.60
9139;BME280;4604;48.616;9.548;2023-03-24T00:22:38;96105.03;;;15.76;56.75
9139;BME280;4604;48.616;9.548;2023-03-24T00:25:07;96098.28;;;15.74;56.64
9139;BME280;4604;48.616;9.548;2023-03-24T00:27:34;96097.19;;;15.68;57.21
9139;BME280;4604;48.616;9.548;2023-03-24T00:30:03;96093.44;;;15.62;57.47
9139;BME280;4604;48.616;9.548;2023-03-24T00:32:31;96086.22;;;15.56;57.67
9139;BME280;4604;48.616;9.548;2023-03-24T00:34:58;96069.78;;;15.46;58.54
9139;BME280;4604;48.616;9.548;2023-03-24T00:37:25;96069.94;;;15.45;58.23
9139;BME280;4604;48.616;9.548;2023-03-24T00:39:53;96069.31;;;15.43;58.79
9139;BME280;4604;48.616;9.548;2023-03-24T00:42:20;96062.47;;;15.55;57.46
9139;BME280;4604;48.616;9.548;2023-03-24T00:44:49;96058.03;;;15.40;58.12
9139;BME280;4604;48.616;9.548;2023-03-24T00:47:18;96046.72;;;15.32;58.47
9139;BME280;4604;48.616;9.548;2023-03-24T00:49:51;96028.16;;;15.38;57.94
9139;BME280;4604;48.616;9.548;2023-03-24T00:52:20;96029.69;;;15.26;57.84
9139;BME280;4604;48.616;9.548;2023-03-24T00:54:49;96028.75;;;15.34;58.05
9139;BME280;4604;48.616;9.548;2023-03-24T00:57:17;96031.53;;;15.26;58.16
9139;BME280;4604;48.616;9.548;2023-03-24T00:59:46;96003.44;;;15.16;58.21
9139;BME280;4604;48.616;9.548;2023-03-24T01:02:14;96009.63;;;15.24;57.82
9139;BME280;4604;48.616;9.548;2023-03-24T01:04:43;96025.66;;;15.09;58.44
9139;BME280;4604;48.616;9.548;2023-03-24T01:07:12;95996.34;;;15.24;57.93
9139;BME280;4604;48.616;9.548;2023-03-24T01:09:43;96006.53;;;15.20;58.01
9139;BME280;4604;48.616;9.548;2023-03-24T01:12:17;96012.09;;;15.25;57.55
9139;BME280;4604;48.616;9.548;2023-03-24T01:14:46;96005.28;;;15.16;57.89
9139;BME280;4604;48.616;9.548;2023-03-24T01:17:13;95998.25;;;15.30;57.41
9139;BME280;4604;48.616;9.548;2023-03-24T01:19:39;95993.88;;;15.44;56.59
9139;BME280;4604;48.616;9.548;2023-03-24T01:22:07;95982.59;;;15.41;56.53
9139;BME280;4604;48.616;9.548;2023-03-24T01:24:34;95971.75;;;15.43;56.78
9139;BME280;4604;48.616;9.548;2023-03-24T01:27:01;95963.53;;;15.38;56.47
9139;BME280;4604;48.616;9.548;2023-03-24T01:29:30;95970.50;;;15.39;56.70
9139;BME280;4604;48.616;9.548;2023-03-24T01:31:57;95948.94;;;15.27;56.29
9139;BME280;4604;48.616;9.548;2023-03-24T01:34:23;95949.81;;;15.34;56.83
9139;BME280;4604;48.616;9.548;2023-03-24T01:36:50;95954.00;;;15.44;56.40
9139;BME280;4604;48.616;9.548;2023-03-24T01:39:17;95951.69;;;15.40;56.27
9139;BME280;4604;48.616;9.548;2023-03-24T01:41:44;95940.25;;;15.40;56.12
9139;BME280;4604;48.616;9.548;2023-03-24T01:44:30;95950.69;;;15.41;56.47
9139;BME280;4604;48.616;9.548;2023-03-24T01:46:58;95930.41;;;15.40;56.42
9139;BME280;4604;48.616;9.548;2023-03-24T01:49:28;95941.13;;;15.47;56.46
9139;BME280;4604;48.616;9.548;2023-03-24T01:51:59;95930.88;;;15.44;56.07
9139;BME280;4604;48.616;9.548;2023-03-24T01:54:30;95935.78;;;15.47;56.35
9139;BME280;4604;48.616;9.548;2023-03-24T01:57:03;95944.34;;;15.43;56.27
9139;BME280;4604;48.616;9.548;2023-03-24T01:59:35;95919.44;;;15.50;55.74
9139;BME280;4604;48.616;9.548;2023-03-24T02:02:04;95934.81;;;15.55;55.85
9139;BME280;4604;48.616;9.548;2023-03-24T02:04:33;95936.22;;;15.51;55.93
9139;BME280;4604;48.616;9.548;2023-03-24T02:07:08;95931.94;;;15.50;55.89
9139;BME280;4604;48.616;9.548;2023-03-24T02:09:36;95925.97;;;15.48;55.71
9139;BME280;4604;48.616;9.548;2023-03-24T02:12:03;95933.59;;;15.57;55.74
9139;BME280;4604;48.616;9.548;2023-03-24T02:14:32;95943.59;;;15.49;56.04
9139;BME280;4604;48.616;9.548;2023-03-24T02:17:32;95941.53;;;15.51;56.13
9139;BME280;4604;48.616;9.548;2023-03-24T02:20:29;95944.59;;;15.48;56.23
9139;BME280;4604;48.616;9.548;2023-03-24T02:23:18;95927.66;;;15.55;55.68
9139;BME280;4604;48.616;9.548;2023-03-24T02:35:32;95942.25;;;15.66;55.12
9139;BME280;4604;48.616;9.548;2023-03-24T02:41:13;95927.06;;;15.60;55.36
9139;BME280;4604;48.616;9.548;2023-03-24T02:43:51;95936.66;;;15.54;55.62
9139;BME280;4604;48.616;9.548;2023-03-24T02:46:24;95930.59;;;15.67;55.16
9139;BME280;4604;48.616;9.548;2023-03-24T02:49:06;95932.16;;;15.55;55.41
9139;BME280;4604;48.616;9.548;2023-03-24T02:51:40;95940.94;;;15.55;55.97
9139;BME280;4604;48.616;9.548;2023-03-24T02:54:14;95932.38;;;15.60;55.69
9139;BME280;4604;48.616;9.548;2023-03-24T02:56:46;95925.69;;;15.64;55.49
9139;BME280;4604;48.616;9.548;2023-03-24T02:59:18;95920.69;;;15.54;55.95
9139;BME280;4604;48.616;9.548;2023-03-24T03:01:50;95909.19;;;15.47;55.89
9139;BME280;4604;48.616;9.548;2023-03-24T03:04:24;95920.47;;;15.49;56.18
9139;BME280;4604;48.616;9.548;2023-03-24T03:06:55;95918.28;;;15.59;55.85
9139;BME280;4604;48.616;9.548;2023-03-24T03:09:25;95902.03;;;15.48;55.93
9139;BME280;4604;48.616;9.548;2023-03-24T03:11:56;95907.47;;;15.61;55.86
9139;BME280;4604;48.616;9.548;2023-03-24T03:14:29;95898.81;;;15.52;55.97
9139;BME280;4604;48.616;9.548;2023-03-24T03:17:03;95905.16;;;15.51;56.16
9139;BME280;4604;48.616;9.548;2023-03-24T03:19:34;95899.63;;;15.53;55.89
9139;BME280;4604;48.616;9.548;2023-03-24T03:22:06;95905.09;;;15.45;56.64
9139;BME280;4604;48.616;9.548;2023-03-24T03:24:38;95896.94;;;15.46;56.32
9139;BME280;4604;48.616;9.548;2023-03-24T03:27:10;95884.41;;;15.40;56.47
9139;BME280;4604;48.616;9.548;2023-03-24T03:29:42;95892.56;;;15.38;56.41
9139;BME280;4604;48.616;9.548;2023-03-24T03:32:17;95903.19;;;15.38;56.45
9139;BME280;4604;48.616;9.548;2023-03-24T03:34:53;95882.72;;;15.32;56.66
9139;BME280;4604;48.616;9.548;2023-03-24T03:37:25;95872.84;;;15.19;56.83
9139;BME280;4604;48.616;9.548;2023-03-24T03:39:55;95881.81;;;15.47;55.86
9139;BME280;4604;48.616;9.548;2023-03-24T03:42:24;95876.31;;;15.20;56.55
9139;BME280;4604;48.616;9.548;2023-03-24T03:44:52;95892.31;;;15.27;56.49
9139;BME280;4604;48.616;9.548;2023-03-24T03:47:19;95876.78;;;15.30;56.43
9139;BME280;4604;48.616;9.548;2023-03-24T03:49:48;95880.34;;;15.44;55.94
9139;BME280;4604;48.616;9.548;2023-03-24T03:52:15;95884.63;;;15.45;55.69
9139;BME280;4604;48.616;9.548;2023-03-24T03:54:43;95892.84;;;15.44;55.64
9139;BME280;4604;48.616;9.548;2023-03-24T03:57:11;95883.59;;;15.39;55.47
9139;BME280;4604;48.616;9.548;2023-03-24T03:59:40;95863.31;;;15.38;55.29
9139;BME280;4604;48.616;9.548;2023-03-24T04:02:18;95883.88;;;15.51;55.41
9139;BME280;4604;48.616;9.548;2023-03-24T04:05:16;95868.50;;;15.47;55.48
9139;BME280;4604;48.616;9.548;2023-03-24T04:08:15;95878.56;;;15.51;55.49
9139;BME280;4604;48.616;9.548;2023-03-24T04:13:45;95874.50;;;15.62;54.81
9139;BME280;4604;48.616;9.548;2023-03-24T04:16:21;95871.91;;;15.69;54.60
9139;BME280;4604;48.616;9.548;2023-03-24T04:19:04;95870.53;;;15.79;54.18
9139;BME280;4604;48.616;9.548;2023-03-24T04:21:45;95884.22;;;15.76;53.14
9139;BME280;4604;48.616;9.548;2023-03-24T04:24:23;95880.66;;;15.97;53.13
9139;BME280;4604;48.616;9.548;2023-03-24T04:26:56;95851.59;;;16.02;52.82
9139;BME280;4604;48.616;9.548;2023-03-24T04:29:35;95877.84;;;16.12;53.05
9139;BME280;4604;48.616;9.548;2023-03-24T04:32:10;95869.63;;;16.14;53.56
9139;BME280;4604;48.616;9.548;2023-03-24T04:34:47;95867.78;;;16.08;55.51
9139;BME280;4604;48.616;9.548;2023-03-24T04:37:21;95854.06;;;16.11;56.05
9139;BME280;4604;48.616;9.548;2023-03-24T04:39:50;95865.53;;;16.04;56.34
9139;BME280;4604;48.616;9.548;2023-03-24T04:42:22;95874.25;;;15.92;56.94
9139;BME280;4604;48.616;9.548;2023-03-24T04:44:51;95875.28;;;15.91;56.86
9139;BME280;4604;48.616;9.548;2023-03-24T04:47:21;95863.44;;;15.93;56.80
9139;BME280;4604;48.616;9.548;2023-03-24T04:49:50;95867.91;;;15.86;57.76
9139;BME280;4604;48.616;9.548;2023-03-24T04:52:17;95878.69;;;15.71;58.49
9139;BME280;4604;48.616;9.548;2023-03-24T04:54:43;95886.84;;;15.70;58.70
9139;BME280;4604;48.616;9.548;2023-03-24T04:57:10;95894.56;;;15.65;58.90
9139;BME280;4604;48.616;9.548;2023-03-24T04:59:37;95887.75;;;15.55;59.08
9139;BME280;4604;48.616;9.548;2023-03-24T05:02:04;95897.63;;;15.61;58.98
9139;BME280;4604;48.616;9.548;2023-03-24T05:04:33;95904.50;;;15.49;59.36
9139;BME280;4604;48.616;9.548;2023-03-24T05:07:01;95899.38;;;15.48;59.31
9139;BME280;4604;48.616;9.548;2023-03-24T05:09:28;95893.94;;;15.56;59.07
9139;BME280;4604;48.616;9.548;2023-03-24T05:11:56;95903.47;;;15.44;59.20
9139;BME280;4604;48.616;9.548;2023-03-24T05:14:22;95913.25;;;15.43;59.02
9139;BME280;4604;48.616;9.548;2023-03-24T05:16:50;95911.63;;;15.42;59.29
9139;BME280;4604;48.616;9.548;2023-03-24T05:19:16;95911.78;;;15.34;59.51
9139;BME280;4604;48.616;9.548;2023-03-24T05:21:44;95923.34;;;15.26;59.65
9139;BME280;4604;48.616;9.548;2023-03-24T05:24:11;95925.09;;;15.34;59.75
9139;BME280;4604;48.616;9.548;2023-03-24T05:26:38;95927.69;;;15.27;60.28
9139;BME280;4604;48.616;9.548;2023-03-24T05:29:04;95925.41;;;15.24;60.28
9139;BME280;4604;48.616;9.548;2023-03-24T05:31:31;95918.03;;;15.26;59.93
9139;BME280;4604;48.616;9.548;2023-03-24T05:33:58;95926.00;;;15.19;60.29
9139;BME280;4604;48.616;9.548;2023-03-24T05:36:25;95920.09;;;15.24;60.26
9139;BME280;4604;48.616;9.548;2023-03-24T05:38:53;95946.94;;;15.29;59.89
9139;BME280;4604;48.616;9.548;2023-03-24T05:41:20;95959.31;;;15.44;60.69
9139;BME280;4604;48.616;9.548;2023-03-24T05:43:46;95971.84;;;15.28;62.25
9139;BME280;4604;48.616;9.548;2023-03-24T05:46:13;95975.66;;;15.19;64.74
9139;BME280;4604;48.616;9.548;2023-03-24T05:48:40;95992.38;;;15.13;66.12
9139;BME280;4604;48.616;9.548;2023-03-24T05:51:07;96019.91;;;15.05;70.05
9139;BME280;4604;48.616;9.548;2023-03-24T05:53:34;96025.19;;;14.84;73.83
9139;BME280;4604;48.616;9.548;2023-03-24T05:56:02;96030.03;;;14.59;74.85
9139;BME280;4604;48.616;9.548;2023-03-24T05:58:30;96038.63;;;14.61;77.08
9139;BME280;4604;48.616;9.548;2023-03-24T06:00:58;96042.91;;;14.47;78.24
9139;BME280;4604;48.616;9.548;2023-03-24T06:03:25;96034.50;;;14.28;81.25
9139;BME280;4604;48.616;9.548;2023-03-24T06:05:58;96044.47;;;14.11;84.52
9139;BME280;4604;48.616;9.548;2023-03-24T06:08:25;96042.09;;;14.17;84.73
9139;BME280;4604;48.616;9.548;2023-03-24T06:10:52;96039.09;;;13.90;87.72
9139;BME280;4604;48.616;9.548;2023-03-24T06:13:20;96034.88;;;13.81;88.05
9139;BME280;4604;48.616;9.548;2023-03-24T06:15:47;96028.28;;;13.77;90.37
9139;BME280;4604;48.616;9.548;2023-03-24T06:18:14;96025.53;;;13.70;90.36
9139;BME280;4604;48.616;9.548;2023-03-24T06:20:42;96025.75;;;13.83;89.40
9139;BME280;4604;48.616;9.548;2023-03-24T06:23:09;96010.38;;;13.79;88.43
9139;BME280;4604;48.616;9.548;2023-03-24T06:25:35;96008.63;;;13.86;89.81
9139;BME280;4604;48.616;9.548;2023-03-24T06:28:02;96011.66;;;13.83;90.14
9139;BME280;4604;48.616;9.548;2023-03-24T06:30:31;96011.94;;;13.88;91.98
9139;BME280;4604;48.616;9.548;2023-03-24T06:32:58;96015.03;;;13.91;92.37
9139;BME280;4604;48.616;9.548;2023-03-24T06:35:24;96000.41;;;13.81;91.36
9139;BME280;4604;48.616;9.548;2023-03-24T06:37:51;96020.06;;;14.01;91.13
9139;BME280;4604;48.616;9.548;2023-03-24T06:40:18;96019.91;;;14.03;90.42
9139;BME280;4604;48.616;9.548;2023-03-24T06:42:45;96019.41;;;13.99;90.49
9139;BME280;4604;48.616;9.548;2023-03-24T06:45:12;96023.81;;;14.07;90.97
9139;BME280;4604;48.616;9.548;2023-03-24T06:47:41;96016.13;;;13.82;93.25
9139;BME280;4604;48.616;9.548;2023-03-24T06:50:08;96027.19;;;13.86;92.12
9139;BME280;4604;48.616;9.548;2023-03-24T06:52:35;96029.75;;;14.09;91.14
9139;BME280;4604;48.616;9.548;2023-03-24T06:55:02;96032.69;;;13.99;91.25
9139;BME280;4604;48.616;9.548;2023-03-24T06:57:29;96027.91;;;13.95;91.65
9139;BME280;4604;48.616;9.548;2023-03-24T06:59:56;96021.91;;;13.86;93.34
9139;BME280;4604;48.616;9.548;2023-03-24T07:02:22;96035.00;;;14.02;92.22
9139;BME280;4604;48.616;9.548;2023-03-24T07:04:50;96030.56;;;13.95;92.33
9139;BME280;4604;48.616;9.548;2023-03-24T07:07:19;96039.94;;;14.05;92.30
9139;BME280;4604;48.616;9.548;2023-03-24T07:09:48;96035.34;;;13.99;92.63
9139;BME280;4604;48.616;9.548;2023-03-24T07:12:15;96048.59;;;14.14;91.79
9139;BME280;4604;48.616;9.548;2023-03-24T07:14:42;96042.09;;;14.17;90.21
9139;BME280;4604;48.616;9.548;2023-03-24T07:17:09;96038.09;;;14.21;88.31
9139;BME280;4604;48.616;9.548;2023-03-24T07:19:35;96052.16;;;14.21;88.43
9139;BME280;4604;48.616;9.548;2023-03-24T07:22:03;96052.66;;;14.10;89.44
9139;BME280;4604;48.616;9.548;2023-03-24T07:24:32;96059.03;;;14.01;91.83
9139;BME280;4604;48.616;9.548;2023-03-24T07:26:59;96060.06;;;14.00;92.63
9139;BME280;4604;48.616;9.548;2023-03-24T07:29:26;96064.34;;;14.01;92.58
9139;BME280;4604;48.616;9.548;2023-03-24T07:31:53;96061.84;;;13.84;94.89
9139;BME280;4604;48.616;9.548;2023-03-24T07:34:23;96070.72;;;13.91;95.11
9139;BME280;4604;48.616;9.548;2023-03-24T07:36:49;96082.00;;;13.94;96.75
9139;BME280;4604;48.616;9.548;2023-03-24T07:39:19;96076.81;;;13.62;98.66
9139;BME280;4604;48.616;9.548;2023-03-24T07:41:46;96079.19;;;13.57;100.00
9139;BME280;4604;48.616;9.548;2023-03-24T07:44:13;96084.47;;;13.57;100.00
9139;BME280;4604;48.616;9.548;2023-03-24T07:46:40;96089.13;;;13.55;100.00
9139;BME280;4604;48.616;9.548;2023-03-24T07:49:07;96091.69;;;13.48;100.00
9139;BME280;4604;48.616;9.548;2023-03-24T07:51:34;96098.88;;;13.40;100.00
9139;BME280;4604;48.616;9.548;2023-03-24T07:54:01;96101.31;;;13.18;100.00
9139;BME280;4604;48.616;9.548;2023-03-24T07:56:29;96090.25;;;13.15;100.00
9139;BME280;4604;48.616;9.548;2023-03-24T07:58:56;96099.81;;;13.16;100.00
9139;BME280;4604;48.616;9.548;2023-03-24T08:01:22;96099.69;;;13.09;100.00
9139;BME280;4604;48.616;9.548;2023-03-24T08:03:49;96095.03;;;13.19;100.00
9139;BME280;4604;48.616;9.548;2023-03-24T08:06:19;96102.41;;;13.24;100.00
9139;BME280;4604;48.616;9.548;2023-03-24T08:08:46;96098.22;;;13.38;100.00
9139;BME280;4604;48.616;9.548;2023-03-24T08:11:13;96104.69;;;13.35;100.00
9139;BME280;4604;48.616;9.548;2023-03-24T08:13:41;96101.38;;;13.33;100.00
9139;BME280;4604;48.616;9.548;2023-03-24T08:16:08;96108.22;;;13.27;100.00
9139;BME280;4604;48.616;9.548;2023-03-24T08:18:35;96080.19;;;13.33;100.00
9139;BME280;4604;48.616;9.548;2023-03-24T08:21:02;96084.66;;;13.33;100.00
9139;BME280;4604;48.616;9.548;2023-03-24T08:23:29;96093.03;;;13.44;100.00
9139;BME280;4604;48.616;9.548;2023-03-24T08:25:56;96097.06;;;13.55;100.00
9139;BME280;4604;48.616;9.548;2023-03-24T08:28:22;96106.16;;;13.61;100.00
9139;BME280;4604;48.616;9.548;2023-03-24T08:30:50;96037.78;;;13.10;100.00
9139;BME280;4604;48.616;9.548;2023-03-24T08:33:17;96104.22;;;13.55;100.00
9139;BME280;4604;48.616;9.548;2023-03-24T08:35:44;96119.19;;;13.47;100.00
9139;BME280;4604;48.616;9.548;2023-03-24T08:38:11;96131.97;;;13.44;100.00
9139;BME280;4604;48.616;9.548;2023-03-24T08:40:40;96108.56;;;13.47;100.00
9139;BME280;4604;48.616;9.548;2023-03-24T08:43:09;96107.34;;;13.58;100.00
9139;BME280;4604;48.616;9.548;2023-03-24T08:45:38;96113.03;;;13.70;100.00
9139;BME280;4604;48.616;9.548;2023-03-24T08:48:07;96106.50;;;13.81;100.00
9139;BME280;4604;48.616;9.548;2023-03-24T08:50:37;96104.84;;;13.95;100.00
9139;BME280;4604;48.616;9.548;2023-03-24T08:53:04;96091.91;;;14.00;100.00
9139;BME280;4604;48.616;9.548;2023-03-24T08:55:31;96081.72;;;14.03;100.00
9139;BME280;4604;48.616;9.548;2023-03-24T08:57:58;96078.06;;;14.04;100.00
9139;BME280;4604;48.616;9.548;2023-03-24T09:00:24;96069.75;;;14.07;100.00
9139;BME280;4604;48.616;9.548;2023-03-24T09:02:53;96054.38;;;14.18;100.00
9139;BME280;4604;48.616;9.548;2023-03-24T09:05:25;96020.06;;;14.16;100.00
9139;BME280;4604;48.616;9.548;2023-03-24T09:07:52;95970.09;;;14.20;100.00
9139;BME280;4604;48.616;9.548;2023-03-24T09:10:19;95930.34;;;14.26;100.00
9139;BME280;4604;48.616;9.548;2023-03-24T09:12:47;95908.56;;;14.31;99.60
9139;BME280;4604;48.616;9.548;2023-03-24T09:15:13;95947.84;;;14.21;99.28
9139;BME280;4604;48.616;9.548;2023-03-24T09:17:40;96008.38;;;13.81;100.00
9139;BME280;4604;48.616;9.548;2023-03-24T09:20:11;96026.84;;;13.89;100.00
9139;BME280;4604;48.616;9.548;2023-03-24T09:22:41;96049.63;;;14.13;96.05
9139;BME280;4604;48.616;9.548;2023-03-24T09:25:08;96050.53;;;14.35;86.14
9139;BME280;4604;48.616;9.548;2023-03-24T09:27:35;96043.66;;;14.41;88.53
9139;BME280;4604;48.616;9.548;2023-03-24T09:30:05;96055.75;;;14.28;87.71
9139;BME280;4604;48.616;9.548;2023-03-24T09:32:32;96063.16;;;14.33;88.22
9139;BME280;4604;48.616;9.548;2023-03-24T09:34:59;96064.63;;;14.35;89.62
9139;BME280;4604;48.616;9.548;2023-03-24T09:37:27;96061.88;;;14.44;90.46
9139;BME280;4604;48.616;9.548;2023-03-24T09:39:59;96081.19;;;14.52;90.89
9139;BME280;4604;48.616;9.548;2023-03-24T09:42:29;96065.09;;;14.54;90.36
9139;BME280;4604;48.616;9.548;2023-03-24T09:44:59;96063.41;;;14.68;87.98
9139;BME280;4604;48.616;9.548;2023-03-24T09:47:30;96060.06;;;14.95;84.72
9139;BME280;4604;48.616;9.548;2023-03-24T09:50:02;96071.13;;;14.99;84.73
9139;BME280;4604;48.616;9.548;2023-03-24T09:52:33;96055.25;;;15.06;85.47
9139;BME280;4604;48.616;9.548;2023-03-24T09:55:03;96066.16;;;15.32;82.48
9139;BME280;4604;48.616;9.548;2023-03-24T09:57:34;96065.97;;;15.34;80.69
9139;BME280;4604;48.616;9.548;2023-03-24T10:00:14;96070.53;;;15.40;80.68
9139;BME280;4604;48.616;9.548;2023-03-24T10:02:41;96086.63;;;15.32;81.13
9139;BME280;4604;48.616;9.548;2023-03-24T10:05:12;96092.69;;;15.47;81.42
9139;BME280;4604;48.616;9.548;2023-03-24T10:07:42;96088.94;;;15.63;79.48
9139;BME280;4604;48.616;9.548;2023-03-24T10:10:19;96072.38;;;15.68;79.38
9139;BME280;4604;48.616;9.548;2023-03-24T10:12:50;96079.22;;;15.98;77.14
9139;BME280;4604;48.616;9.548;2023-03-24T10:15:23;96062.56;;;15.90;79.22
9139;BME280;4604;48.616;9.548;2023-03-24T10:17:56;96047.09;;;16.00;77.66
9139;BME280;4604;48.616;9.548;2023-03-24T10:20:31;96064.06;;;16.27;71.83
9139;BME280;4604;48.616;9.548;2023-03-24T10:23:06;96042.19;;;16.38;71.08
9139;BME280;4604;48.616;9.548;2023-03-24T10:25:47;96058.47;;;16.57;69.37
9139;BME280;4604;48.616;9.548;2023-03-24T10:28:18;96061.19;;;16.77;66.83
9139;BME280;4604;48.616;9.548;2023-03-24T10:30:47;96062.75;;;16.51;67.13
9139;BME280;4604;48.616;9.548;2023-03-24T10:33:14;96069.38;;;16.34;67.49
9139;BME280;4604;48.616;9.548;2023-03-24T10:35:49;96063.31;;;16.05;66.77
9139;BME280;4604;48.616;9.548;2023-03-24T10:38:19;96046.53;;;16.04;67.93
9139;BME280;4604;48.616;9.548;2023-03-24T10:40:48;96048.19;;;16.12;68.63
9139;BME280;4604;48.616;9.548;2023-03-24T10:43:16;96027.06;;;16.45;63.76
9139;BME280;4604;48.616;9.548;2023-03-24T10:45:46;96048.94;;;16.41;63.57
9139;BME280;4604;48.616;9.548;2023-03-24T10:48:33;96056.63;;;16.57;63.18
9139;BME280;4604;48.616;9.548;2023-03-24T10:50:59;96059.91;;;16.59;64.69
9139;BME280;4604;48.616;9.548;2023-03-24T10:53:26;96074.75;;;16.40;64.54
9139;BME280;4604;48.616;9.548;2023-03-24T10:55:55;96069.72;;;16.17;63.16
9139;BME280;4604;48.616;9.548;2023-03-24T10:58:29;96079.09;;;16.13;63.51
9139;BME280;4604;48.616;9.548;2023-03-24T11:01:01;96088.16;;;16.19;63.44
9139;BME280;4604;48.616;9.548;2023-03-24T11:03:29;96082.75;;;16.05;64.04
9139;BME280;4604;48.616;9.548;2023-03-24T11:05:58;96078.47;;;16.04;64.34
9139;BME280;4604;48.616;9.548;2023-03-24T11:08:27;96077.59;;;16.04;63.61
9139;BME280;4604;48.616;9.548;2023-03-24T11:10:58;96108.78;;;16.10;62.54
9139;BME280;4604;48.616;9.548;2023-03-24T11:13:29;96100.66;;;15.69;64.03
9139;BME280;4604;48.616;9.548;2023-03-24T11:16:05;96099.91;;;15.53;65.06
9139;BME280;4604;48.616;9.548;2023-03-24T11:18:32;96084.97;;;15.74;66.13
9139;BME280;4604;48.616;9.548;2023-03-24T11:21:00;96081.47;;;15.52;66.71
9139;BME280;4604;48.616;9.548;2023-03-24T11:23:30;96089.56;;;15.87;65.15
9139;BME280;4604;48.616;9.548;2023-03-24T11:26:13;96095.59;;;15.74;65.42
9139;BME280;4604;48.616;9.548;2023-03-24T11:28:44;96109.59;;;15.61;65.33
9139;BME280;4604;48.616;9.548;2023-03-24T11:31:12;96098.88;;;15.97;65.70
9139;BME280;4604;48.616;9.548;2023-03-24T11:33:54;96105.75;;;15.85;65.12
9139;BME280;4604;48.616;9.548;2023-03-24T11:36:41;96116.50;;;15.77;67.05
9139;BME280;4604;48.616;9.548;2023-03-24T11:39:12;96114.50;;;16.07;65.85
9139;BME280;4604;48.616;9.548;2023-03-24T11:41:42;96123.72;;;16.11;65.34
9139;BME280;4604;48.616;9.548;2023-03-24T11:44:16;96105.53;;;15.87;66.15
9139;BME280;4604;48.616;9.548;2023-03-24T11:46:44;96118.47;;;16.18;62.92
9139;BME280;4604;48.616;9.548;2023-03-24T11:49:15;96087.47;;;15.82;64.52
9139;BME280;4604;48.616;9.548;2023-03-24T11:51:46;96083.47;;;15.93;64.58
9139;BME280;4604;48.616;9.548;2023-03-24T11:54:17;96101.13;;;16.00;63.58
9139;BME280;4604;48.616;9.548;2023-03-24T11:56:50;96113.78;;;16.20;63.42
9139;BME280;4604;48.616;9.548;2023-03-24T11:59:25;96086.22;;;16.41;62.73
9139;BME280;4604;48.616;9.548;2023-03-24T12:01:58;96085.63;;;16.39;62.63
9139;BME280;4604;48.616;9.548;2023-03-24T12:04:31;96073.91;;;15.98;63.33
9139;BME280;4604;48.616;9.548;2023-03-24T12:07:21;96085.22;;;16.07;63.48
9139;BME280;4604;48.616;9.548;2023-03-24T12:09:56;96077.00;;;16.37;62.22
9139;BME280;4604;48.616;9.548;2023-03-24T12:12:34;96064.47;;;16.31;62.61
9139;BME280;4604;48.616;9.548;2023-03-24T12:18:26;96090.44;;;15.94;63.76
9139;BME280;4604;48.616;9.548;2023-03-24T12:21:03;96084.38;;;16.07;62.70
9139;BME280;4604;48.616;9.548;2023-03-24T12:23:38;96091.38;;;16.08;61.76
9139;BME280;4604;48.616;9.548;2023-03-24T12:26:14;96088.53;;;16.16;62.27
9139;BME280;4604;48.616;9.548;2023-03-24T12:28:56;96086.50;;;16.18;61.93
9139;BME280;4604;48.616;9.548;2023-03-24T12:31:48;96089.47;;;16.01;62.79
9139;BME280;4604;48.616;9.548;2023-03-24T12:37:33;96081.41;;;15.67;63.19
9139;BME280;4604;48.616;9.548;2023-03-24T12:40:34;96068.91;;;15.89;63.95
9139;BME280;4604;48.616;9.548;2023-03-24T12:43:14;96093.00;;;15.80;62.85
9139;BME280;4604;48.616;9.548;2023-03-24T12:45:46;96085.22;;;15.79;63.00
9139;BME280;4604;48.616;9.548;2023-03-24T12:48:49;96068.16;;;15.95;62.59
9139;BME280;4604;48.616;9.548;2023-03-24T12:51:29;96082.03;;;15.90;62.68
9139;BME280;4604;48.616;9.548;2023-03-24T12:54:06;96090.84;;;15.48;64.18
9139;BME280;4604;48.616;9.548;2023-03-24T12:56:41;96104.19;;;15.33;64.14
9139;BME280;4604;48.616;9.548;2023-03-24T12:59:12;96069.88;;;15.16;65.28
9139;BME280;4604;48.616;9.548;2023-03-24T13:01:43;96065.06;;;15.70;63.57
9139;BME280;4604;48.616;9.548;2023-03-24T13:04:16;96072.72;;;15.79;61.79
9139;BME280;4604;48.616;9.548;2023-03-24T13:06:48;96079.13;;;15.63;62.62
9139;BME280;4604;48.616;9.548;2023-03-24T13:09:24;96082.22;;;15.67;63.81
9139;BME280;4604;48.616;9.548;2023-03-24T13:12:00;96041.09;;;15.91;63.54
9139;BME280;4604;48.616;9.548;2023-03-24T13:14:33;96060.00;;;16.38;60.57
9139;BME280;4604;48.616;9.548;2023-03-24T13:17:13;96063.28;;;16.40;60.23
9139;BME280;4604;48.616;9.548;2023-03-24T13:19:42;96078.91;;;16.50;59.80
9139;BME280;4604;48.616;9.548;2023-03-24T13:22:14;96051.50;;;16.62;59.90
9139;BME280;4604;48.616;9.548;2023-03-24T13:24:42;96059.72;;;16.61;59.12
9139;BME280;4604;48.616;9.548;2023-03-24T13:27:14;95995.66;;;15.93;58.76
9139;BME280;4604;48.616;9.548;2023-03-24T13:32:37;96038.28;;;15.50;60.14
9139;BME280;4604;48.616;9.548;2023-03-24T13:35:13;96055.28;;;15.49;61.52
9139;BME280;4604;48.616;9.548;2023-03-24T13:37:45;96054.56;;;15.61;61.08
9139;BME280;4604;48.616;9.548;2023-03-24T13:40:20;96065.66;;;15.44;61.82
9139;BME280;4604;48.616;9.548;2023-03-24T13:42:50;96057.41;;;15.38;61.25
9139;BME280;4604;48.616;9.548;2023-03-24T13:45:25;96073.69;;;15.50;61.80
9139;BME280;4604;48.616;9.548;2023-03-24T13:48:03;96061.72;;;15.39;60.15
9139;BME280;4604;48.616;9.548;2023-03-24T13:50:32;96056.91;;;15.50;60.70
9139;BME280;4604;48.616;9.548;2023-03-24T13:53:04;96063.75;;;15.37;61.00
9139;BME280;4604;48.616;9.548;2023-03-24T13:55:35;96079.38;;;15.47;61.06
9139;BME280;4604;48.616;9.548;2023-03-24T13:58:05;96045.63;;;15.26;61.02
9139;BME280;4604;48.616;9.548;2023-03-24T14:01:04;96068.94;;;15.46;60.77
9139;BME280;4604;48.616;9.548;2023-03-24T14:03:33;96055.47;;;15.26;61.52